Flight Track Log - Related Links

Times and Time Zones

All times are in EDT time to prevent confusion due to time zone crossing. See the N53NW flight status page for this flight to view local times or setup timezone preferences in your user account.

Time Position Orientation Groundspeed Altitude Reporting Facility
EDT Latitude Longitude Course Direction KTS MPH feet Rate Location/Type
Wed 10:23:11 AM 40.0167 -86.2500 282° West 176 203 1,400  Level Indianapolis TRACON
Wed 10:24:22 AM 40.0267 -86.3106 282° West 215 247 3,800 2,866 Climbing Chicago Center
Wed 10:25:25 AM 40.0717 -86.3775 311° West 205 236 7,800 3,353 Climbing Chicago Center
Wed 10:26:04 AM 40.0972 -86.4142 312° West 215 247 9,500 2,673 Climbing Indianapolis Center
Wed 10:27:06 AM 40.1433 -86.4797 313° West 237 273 12,300 2,753 Climbing Indianapolis Center
Wed 10:27:29 AM 40.1631 -86.5081 312° West 253 291 13,400 2,753 Climbing Chicago Center
Wed 10:28:31 AM 40.2147 -86.5764 315° West 262 302 16,200 2,710 Climbing Chicago Center
Wed 10:29:33 AM 40.2650 -86.6494 312° West 269 310 19,000 1,839 Climbing Chicago Center
Wed 10:30:35 AM 40.3328 -86.7433 313° West 300 345 20,000 484 Climbing Chicago Center
Wed 10:31:37 AM 40.3956 -86.8328 313° West 329 379 20,000  Level Chicago Center
Wed 10:32:39 AM 40.4547 -86.9244 310° West 329 379 20,000  Level Chicago Center
Wed 10:33:41 AM 40.5164 -87.0122 313° West 327 376 20,000 -581 Level Chicago Center
Wed 10:34:43 AM 40.5889 -87.0858 322° Northwest 327 376 18,800 -2,032 Descending Chicago Center
Wed 10:35:45 AM 40.6811 -87.1342 338° Northwest 304 350 15,800 -2,903 Descending Chicago Center
Wed 10:36:47 AM 40.7542 -87.1714 339° North 286 329 12,800 -2,371 Descending Chicago Center
Wed 10:37:49 AM 40.8264 -87.2111 337° Northwest 283 326 10,900 -1,680 Descending Chicago Center
Wed 10:38:52 AM 40.8986 -87.2475 339° North 282 325 9,300 -1,344 Descending Chicago Center
Wed 10:39:54 AM 40.9792 -87.2897 338° Northwest 264 304 8,100 -677 Descending Chicago Center
Wed 10:40:56 AM 41.0431 -87.3203 340° North 249 287 7,900 -919 Descending Chicago Center
Wed 10:41:58 AM 41.1008 -87.3519 338° Northwest 233 268 6,200 -1,548 Descending Chicago Center
Wed 10:43:00 AM 41.1606 -87.3869 336° Northwest 233 268 4,700 -1,065 Descending Chicago Center
Wed 10:44:02 AM 41.2269 -87.4189 340° North 247 284 4,000 -339 Descending Chicago Center
Wed 10:45:04 AM 41.3114 -87.3889 15° North 264 304 4,000  Level Chicago Center
Wed 10:46:06 AM 41.3833 -87.3667 13° North 261 300 4,000  Level Chicago TRACON
Wed 10:47:06 AM 41.4500 -87.3667 360° North 258 297 4,000  Level Chicago TRACON
Wed 10:48:06 AM 41.5167 -87.3667 360° North 256 295 4,000  Level Chicago TRACON
Wed 10:49:06 AM 41.6000 -87.3667 360° North 258 297 4,000  Level Chicago TRACON
Wed 10:50:06 AM 41.6667 -87.3667 360° North 260 299 4,000 -350 Level Chicago TRACON
Wed 10:51:06 AM 41.7500 -87.3667 360° North 261 300 3,300 -522 Descending Chicago TRACON
Wed 10:52:01 AM 41.8000 -87.3667 360° North 247 284 3,000 -247 Descending Chicago TRACON
Wed 10:52:19 AM 41.8203 -87.3683 356° North 258 297 3,000  Level Chicago Center
Wed 10:53:21 AM 41.8906 -87.3725 357° North 255 293 3,000  Level Chicago Center
Wed 10:54:23 AM 41.9597 -87.3761 358° North 253 291 3,000  Level Chicago Center
Wed 10:55:01 AM 42.0167 -87.4167 332° Northwest 248 285 3,000  Level Chicago TRACON
Wed 10:56:01 AM 42.0667 -87.4667 323° Northwest 245 282 3,000  Level Chicago TRACON
Wed 10:57:07 AM 42.1333 -87.5167 331° Northwest 245 282 3,000  Level Chicago TRACON
Wed 10:57:29 AM 42.1431 -87.5297 315° West 245 282 3,000 -357 Level Chicago Center
Wed 10:58:31 AM 42.1750 -87.6053 300° West 247 284 2,500 -242 Descending Chicago Center
Wed 10:59:33 AM 42.1911 -87.6944 284° West 250 288 2,500  Level Chicago Center
Wed 11:00:35 AM 42.2111 -87.8000 284° West 246 283 2,500  Level Chicago Center
Wed 11:01:37 AM 42.1717 -87.8622 229° Southwest 250 288 2,500  Level Chicago Center
Wed 11:03:00 AM 42.1881 -87.9357 160° South  Level FlightAware Approximate
Wed 11:10:00 AM 42.1143 -87.9015 166° South  Level Estimated
Wed 11:11:00 AM 42.1143 -87.9015 166° South  Level Estimated

Login

Don't have an account? Register now (free) for customized features, flight alerts, and more!